Terminal Aerodrome Forecast
Issued by NWS

Home | Current Version | Previous Version | Text Only | Print | Product List | Glossary On
Versions: 1 2 3 4 5 6 7 8 9 10 11 12 13
000
FTUS45 KTFX 221700
TAFGTF
TAF
KGTF 221730Z 2218/2318 VRB04KT P6SM BKN110
     FM221900 VRB05KT P6SM SCT080
     FM222200 VRB05KT P6SM SCT080 BKN250
      TEMPO 2222/2302 VRB20G30KT -TSRA BKN080CB
     FM230200 08008KT P6SM BKN250
     FM231100 20006KT P6SM BKN120
     FM231600 14006KT P6SM SCT120=

USA.gov is the U.S. government's official web portal to all federal, state and local government web resources and services.